Time;durP1;ratioP1;P1;durP2;ratioP2;P2;SDS_P1;SDS_P2;PMS_P1;PMS_P2;Temp;Humidity;BMP_temperature;BMP_pressure;BME280_temperature;BME280_humidity;BME280_pressure;Samples;Min_cycle;Max_cycle;Signal;HPM_P1;HPM_P2
2022/07/27 00:00:46;;;;;;;7.00;1.37;;;;;;;;;;5025087;28;20334;-71
2022/07/27 00:03:13;;;;;;;6.43;1.37;;;;;;;;;;5003941;28;20230;-71
2022/07/27 00:05:40;;;;;;;5.83;1.40;;;;;;;;;;4994078;28;20713;-71
2022/07/27 00:08:07;;;;;;;5.93;1.40;;;;;;;;;;5018576;28;20305;-71
2022/07/27 00:10:51;;;;;;;5.90;1.33;;;;;;;;;;5020127;28;20244;-71
2022/07/27 00:13:17;;;;;;;5.23;1.30;;;;;;;;;;5018596;28;20245;-72
2022/07/27 00:15:44;;;;;;;4.57;1.40;;;;;;;;;;4996500;28;20699;-71
2022/07/27 00:18:11;;;;;;;4.37;1.40;;;;;;;;;;4994337;28;20291;-71
2022/07/27 00:20:38;;;;;;;4.00;1.43;;;;;;;;;;5032519;28;20226;-71
2022/07/27 00:23:05;;;;;;;6.40;1.40;;;;;;;;;;5041503;28;20317;-72
2022/07/27 00:25:32;;;;;;;5.50;1.67;;;;;;;;;;5043823;28;20264;-71
2022/07/27 00:27:59;;;;;;;6.10;1.33;;;;;;;;;;5025711;28;20232;-72
2022/07/27 00:30:25;;;;;;;4.30;1.10;;;;;;;;;;5043275;28;20222;-71
2022/07/27 00:32:52;;;;;;;7.77;1.83;;;;;;;;;;5041925;28;20230;-72
2022/07/27 00:35:19;;;;;;;5.67;1.47;;;;;;;;;;5025831;28;20230;-71
2022/07/27 00:37:46;;;;;;;5.37;1.20;;;;;;;;;;5015041;28;24469;-71
2022/07/27 00:40:12;;;;;;;5.83;1.40;;;;;;;;;;5023645;28;20601;-71
2022/07/27 00:42:39;;;;;;;3.17;1.40;;;;;;;;;;5020952;28;20230;-71
2022/07/27 00:45:06;;;;;;;6.30;2.00;;;;;;;;;;5007213;28;20235;-72
2022/07/27 00:47:33;;;;;;;10.60;1.50;;;;;;;;;;5021306;28;20280;-72
2022/07/27 00:50:01;;;;;;;7.87;1.80;;;;;;;;;;5009095;28;20229;-71
2022/07/27 00:52:27;;;;;;;6.27;1.23;;;;;;;;;;5005228;28;20218;-72
2022/07/27 00:54:54;;;;;;;5.50;1.57;;;;;;;;;;5004517;28;20237;-71
2022/07/27 00:57:21;;;;;;;5.70;1.50;;;;;;;;;;5003714;28;20245;-72
2022/07/27 00:59:48;;;;;;;4.27;1.43;;;;;;;;;;5022964;28;20223;-71
2022/07/27 01:02:15;;;;;;;4.37;1.30;;;;;;;;;;5021097;28;20329;-71
2022/07/27 01:04:48;;;;;;;4.13;0.97;;;;;;;;;;5021597;28;20235;-71
2022/07/27 01:07:19;;;;;;;5.03;1.47;;;;;;;;;;5003099;28;20214;-71
2022/07/27 01:09:58;;;;;;;5.33;1.60;;;;;;;;;;5001986;28;20235;-71
2022/07/27 01:12:30;;;;;;;8.10;1.50;;;;;;;;;;5005703;28;20238;-71
2022/07/27 01:15:14;;;;;;;5.13;1.53;;;;;;;;;;5020262;28;20219;-72
2022/07/27 01:17:41;;;;;;;3.93;1.20;;;;;;;;;;5004707;28;20249;-71
2022/07/27 01:20:08;;;;;;;4.23;1.30;;;;;;;;;;5020670;28;20312;-71
2022/07/27 01:22:35;;;;;;;5.77;1.67;;;;;;;;;;5022717;28;20238;-71
2022/07/27 01:25:01;;;;;;;7.20;1.70;;;;;;;;;;5018837;28;20600;-71
2022/07/27 01:27:28;;;;;;;8.40;1.60;;;;;;;;;;5022732;28;20223;-71
2022/07/27 01:29:55;;;;;;;6.60;1.93;;;;;;;;;;5020312;28;20329;-71
2022/07/27 01:32:22;;;;;;;4.60;1.50;;;;;;;;;;5021454;28;20284;-71
2022/07/27 01:34:48;;;;;;;4.10;1.23;;;;;;;;;;5019789;28;20234;-71
2022/07/27 01:37:15;;;;;;;4.43;1.33;;;;;;;;;;5021815;28;20234;-72
2022/07/27 01:39:42;;;;;;;6.17;1.70;;;;;;;;;;5020218;28;20230;-71
2022/07/27 01:42:09;;;;;;;6.97;1.70;;;;;;;;;;5006696;28;20602;-71
2022/07/27 01:44:35;;;;;;;5.23;1.77;;;;;;;;;;5018211;28;20253;-71
2022/07/27 01:47:04;;;;;;;6.07;1.77;;;;;;;;;;5020264;28;20276;-71
2022/07/27 01:49:40;;;;;;;7.20;1.60;;;;;;;;;;4991267;28;20425;-71
2022/07/27 01:52:07;;;;;;;3.50;1.30;;;;;;;;;;5024379;28;20239;-71
2022/07/27 01:54:33;;;;;;;4.70;1.50;;;;;;;;;;5040322;28;20226;-71
2022/07/27 01:57:00;;;;;;;3.87;1.53;;;;;;;;;;5026422;28;20245;-71
2022/07/27 01:59:27;;;;;;;3.57;1.50;;;;;;;;;;5023844;28;20222;-71
2022/07/27 02:01:53;;;;;;;6.33;1.50;;;;;;;;;;5041290;28;20249;-71
2022/07/27 02:04:22;;;;;;;4.83;1.40;;;;;;;;;;5040445;28;20301;-71
2022/07/27 02:06:48;;;;;;;4.63;1.53;;;;;;;;;;5040067;28;20600;-72
2022/07/27 02:09:15;;;;;;;5.70;1.30;;;;;;;;;;5041247;28;20223;-71
2022/07/27 02:14:27;;;;;;;6.47;1.70;;;;;;;;;;5025838;28;20228;-71
2022/07/27 02:16:54;;;;;;;4.53;1.40;;;;;;;;;;5033923;28;20240;-72
2022/07/27 02:19:21;;;;;;;8.83;1.70;;;;;;;;;;5040972;28;20280;-71
2022/07/27 02:21:47;;;;;;;4.33;1.60;;;;;;;;;;4983935;28;20231;-71
2022/07/27 02:24:14;;;;;;;3.27;1.13;;;;;;;;;;5008136;28;20239;-71
2022/07/27 02:26:41;;;;;;;5.03;1.50;;;;;;;;;;4985923;28;20298;-71
2022/07/27 02:29:09;;;;;;;6.53;1.60;;;;;;;;;;5011486;28;20237;-73
2022/07/27 02:31:37;;;;;;;5.47;1.50;;;;;;;;;;4999045;28;20239;-71
2022/07/27 02:34:03;;;;;;;5.07;1.37;;;;;;;;;;5017091;28;20222;-71
2022/07/27 02:36:31;;;;;;;7.67;1.40;;;;;;;;;;5021660;28;20233;-71
2022/07/27 02:38:57;;;;;;;4.20;1.43;;;;;;;;;;5004805;28;20225;-72
2022/07/27 02:41:24;;;;;;;5.50;1.30;;;;;;;;;;5020670;28;20594;-71
2022/07/27 02:43:51;;;;;;;3.97;1.50;;;;;;;;;;5019513;28;20226;-71
2022/07/27 02:46:18;;;;;;;4.07;1.40;;;;;;;;;;5019879;28;20222;-70
2022/07/27 02:48:45;;;;;;;7.93;1.70;;;;;;;;;;5014523;28;20226;-71
2022/07/27 02:51:13;;;;;;;6.80;1.80;;;;;;;;;;5020888;28;20268;-71
2022/07/27 02:53:40;;;;;;;7.53;1.70;;;;;;;;;;5019357;28;20236;-71
2022/07/27 02:56:07;;;;;;;4.90;1.70;;;;;;;;;;4999721;28;24660;-71
2022/07/27 02:58:34;;;;;;;4.93;1.60;;;;;;;;;;5019064;28;20336;-71
2022/07/27 03:01:01;;;;;;;6.33;1.90;;;;;;;;;;5019415;28;20226;-70
2022/07/27 03:03:27;;;;;;;8.53;1.80;;;;;;;;;;5018852;28;20228;-71
2022/07/27 03:06:04;;;;;;;7.27;2.10;;;;;;;;;;5003835;28;215705;-71
2022/07/27 03:08:31;;;;;;;4.80;1.80;;;;;;;;;;4997980;28;221425;-73
2022/07/27 03:10:57;;;;;;;7.43;1.97;;;;;;;;;;5019151;28;20234;-71
2022/07/27 03:13:25;;;;;;;6.93;1.90;;;;;;;;;;5017364;28;20222;-71
2022/07/27 03:15:52;;;;;;;5.57;1.60;;;;;;;;;;5000040;28;20338;-71
2022/07/27 03:18:37;;;;;;;7.07;1.53;;;;;;;;;;5016894;28;20226;-74
2022/07/27 03:21:03;;;;;;;6.63;1.90;;;;;;;;;;5000803;28;20235;-71
2022/07/27 03:23:32;;;;;;;6.30;1.70;;;;;;;;;;4994131;28;20231;-72
2022/07/27 03:25:58;;;;;;;4.83;1.47;;;;;;;;;;5000305;28;20242;-71
2022/07/27 03:28:25;;;;;;;5.37;2.03;;;;;;;;;;4993916;28;20233;-72
2022/07/27 03:30:52;;;;;;;7.33;1.60;;;;;;;;;;5007976;28;20756;-71
2022/07/27 03:33:19;;;;;;;6.37;1.73;;;;;;;;;;5017396;28;20236;-71
2022/07/27 03:35:45;;;;;;;4.50;1.70;;;;;;;;;;5020100;28;20266;-71
2022/07/27 03:38:12;;;;;;;7.23;1.97;;;;;;;;;;5017097;28;20588;-71
2022/07/27 03:40:39;;;;;;;7.00;1.67;;;;;;;;;;5020354;28;20787;-71
2022/07/27 03:43:06;;;;;;;6.33;1.73;;;;;;;;;;5017614;28;20224;-71
2022/07/27 03:45:50;;;;;;;10.47;2.00;;;;;;;;;;5018730;28;20592;-71
2022/07/27 03:48:17;;;;;;;7.23;1.77;;;;;;;;;;5017417;28;20253;-71
2022/07/27 03:50:44;;;;;;;7.60;2.07;;;;;;;;;;5020315;28;20306;-71
2022/07/27 03:53:10;;;;;;;7.27;2.03;;;;;;;;;;5018318;28;20301;-70
2022/07/27 03:55:37;;;;;;;10.20;1.90;;;;;;;;;;5016227;28;20237;-71
2022/07/27 03:58:04;;;;;;;6.20;1.80;;;;;;;;;;5011116;28;214917;-71
2022/07/27 04:00:31;;;;;;;7.97;1.83;;;;;;;;;;5023827;28;20223;-71
2022/07/27 04:02:58;;;;;;;9.53;1.60;;;;;;;;;;4984882;28;20225;-71
2022/07/27 04:05:25;;;;;;;3.93;1.90;;;;;;;;;;5022938;28;20255;-71
2022/07/27 04:07:55;;;;;;;9.43;2.00;;;;;;;;;;5002330;28;20227;-71
2022/07/27 04:10:22;;;;;;;6.80;1.90;;;;;;;;;;5003549;28;20223;-70
2022/07/27 04:12:51;;;;;;;8.47;1.60;;;;;;;;;;5019427;28;20230;-71
2022/07/27 04:15:20;;;;;;;6.83;2.00;;;;;;;;;;5022933;28;20404;-71
2022/07/27 04:17:47;;;;;;;5.23;1.60;;;;;;;;;;5021832;28;20226;-71
2022/07/27 04:20:23;;;;;;;6.03;1.73;;;;;;;;;;5014536;28;215967;-71
2022/07/27 04:22:50;;;;;;;8.20;1.97;;;;;;;;;;4980026;28;20227;-70
2022/07/27 04:25:17;;;;;;;6.87;1.40;;;;;;;;;;4996321;28;20241;-70
2022/07/27 04:27:47;;;;;;;6.40;1.73;;;;;;;;;;5019695;28;20227;-72
2022/07/27 04:30:14;;;;;;;5.47;1.87;;;;;;;;;;4953966;28;20241;-69
2022/07/27 04:32:41;;;;;;;6.67;1.60;;;;;;;;;;4991837;28;20244;-70
2022/07/27 04:35:08;;;;;;;5.77;1.53;;;;;;;;;;4984473;28;20819;-71
2022/07/27 04:37:35;;;;;;;6.47;1.50;;;;;;;;;;5005706;28;20234;-68
2022/07/27 04:40:02;;;;;;;9.47;1.30;;;;;;;;;;5011007;28;20244;-67
2022/07/27 04:42:29;;;;;;;5.40;1.53;;;;;;;;;;4987086;28;20368;-73
2022/07/27 04:44:56;;;;;;;6.03;1.47;;;;;;;;;;5011534;28;20818;-74
2022/07/27 04:47:23;;;;;;;3.80;1.40;;;;;;;;;;4984765;28;25061;-71
2022/07/27 04:49:50;;;;;;;7.87;1.60;;;;;;;;;;4958359;28;20223;-78
2022/07/27 04:52:18;;;;;;;5.43;1.37;;;;;;;;;;4843692;28;239544;-77
2022/07/27 04:54:52;;;;;;;6.00;1.80;;;;;;;;;;5010310;28;20313;-73
2022/07/27 04:57:19;;;;;;;6.53;1.77;;;;;;;;;;4964784;28;664031;-74
2022/07/27 04:59:46;;;;;;;7.00;1.70;;;;;;;;;;5002732;28;22730;-73
2022/07/27 05:02:13;;;;;;;6.10;1.30;;;;;;;;;;4962819;28;20323;-71
2022/07/27 05:04:40;;;;;;;5.30;1.43;;;;;;;;;;4973781;28;20785;-70
2022/07/27 05:07:07;;;;;;;8.97;1.60;;;;;;;;;;5003090;28;20308;-71
2022/07/27 05:09:34;;;;;;;6.50;1.47;;;;;;;;;;4958141;28;20316;-79
2022/07/27 05:12:01;;;;;;;8.80;1.40;;;;;;;;;;5005158;28;20226;-72
2022/07/27 05:14:28;;;;;;;6.30;1.37;;;;;;;;;;5011364;28;20634;-71
2022/07/27 05:16:54;;;;;;;6.33;1.40;;;;;;;;;;4959817;28;51501;-70
2022/07/27 05:19:21;;;;;;;4.07;1.23;;;;;;;;;;5008187;28;21049;-71
2022/07/27 05:22:06;;;;;;;5.30;1.10;;;;;;;;;;4950164;28;20315;-70
2022/07/27 05:24:33;;;;;;;6.10;1.57;;;;;;;;;;5006829;28;20234;-71
2022/07/27 05:27:00;;;;;;;6.23;1.40;;;;;;;;;;4969315;28;20243;-72
2022/07/27 05:29:27;;;;;;;5.17;1.10;;;;;;;;;;5001866;28;20231;-72
2022/07/27 05:31:54;;;;;;;3.60;1.40;;;;;;;;;;4999106;28;20828;-72
2022/07/27 05:34:22;;;;;;;6.00;1.30;;;;;;;;;;5007130;28;20305;-69
2022/07/27 05:36:49;;;;;;;5.47;1.37;;;;;;;;;;5006784;28;20747;-70
2022/07/27 05:39:16;;;;;;;5.50;1.37;;;;;;;;;;4985686;28;20566;-67
2022/07/27 05:41:43;;;;;;;4.67;1.10;;;;;;;;;;5001983;28;20308;-68
2022/07/27 05:44:10;;;;;;;7.00;1.70;;;;;;;;;;5006461;28;20594;-69
2022/07/27 05:46:37;;;;;;;4.50;1.20;;;;;;;;;;4994864;28;20296;-69
2022/07/27 05:49:03;;;;;;;3.33;1.07;;;;;;;;;;4999463;28;20227;-70
2022/07/27 05:51:30;;;;;;;7.10;1.20;;;;;;;;;;4985127;28;20728;-71
2022/07/27 05:53:57;;;;;;;4.87;1.00;;;;;;;;;;5010235;28;20325;-72
2022/07/27 05:56:42;;;;;;;7.40;1.23;;;;;;;;;;4988470;28;45736;-72
2022/07/27 05:59:09;;;;;;;4.47;0.90;;;;;;;;;;4981024;28;20311;-72
2022/07/27 06:01:37;;;;;;;5.65;1.30;;;;;;;;;;4785656;28;4866835;-69
2022/07/27 06:04:05;;;;;;;4.83;1.30;;;;;;;;;;4975455;28;20231;-72
2022/07/27 06:09:18;;;;;;;3.83;1.30;;;;;;;;;;4981493;28;49482;-69
2022/07/27 06:11:45;;;;;;;6.17;1.43;;;;;;;;;;4979652;28;21056;-70
2022/07/27 06:14:11;;;;;;;7.20;1.60;;;;;;;;;;4953450;28;20263;-74
2022/07/27 06:16:38;;;;;;;3.90;0.90;;;;;;;;;;4960910;28;20227;-70
2022/07/27 06:19:05;;;;;;;3.80;1.07;;;;;;;;;;4994541;28;20234;-68
2022/07/27 06:21:32;;;;;;;4.57;1.40;;;;;;;;;;5014569;28;20662;-74
2022/07/27 06:24:00;;;;;;;6.03;1.20;;;;;;;;;;5014742;28;20207;-76
2022/07/27 06:26:27;;;;;;;4.63;1.17;;;;;;;;;;5012289;28;20219;-74
2022/07/27 06:28:57;;;;;;;2.60;0.83;;;;;;;;;;5018458;28;20901;-73
2022/07/27 06:31:25;;;;;;;4.87;1.37;;;;;;;;;;5000951;28;20251;-73
2022/07/27 06:33:54;;;;;;;4.47;1.00;;;;;;;;;;5018160;28;20251;-73
2022/07/27 06:36:41;;;;;;;2.70;1.07;;;;;;;;;;5020452;28;20176;-74
2022/07/27 06:39:08;;;;;;;3.57;1.13;;;;;;;;;;5022070;28;20253;-69
2022/07/27 06:41:52;;;;;;;2.73;1.10;;;;;;;;;;5020258;28;20177;-72
2022/07/27 06:44:24;;;;;;;4.33;1.43;;;;;;;;;;5016310;28;20286;-72
2022/07/27 06:46:52;;;;;;;3.93;1.20;;;;;;;;;;5019660;28;20198;-77
2022/07/27 06:49:19;;;;;;;3.97;1.00;;;;;;;;;;5035815;28;20219;-73
2022/07/27 06:51:47;;;;;;;3.80;0.80;;;;;;;;;;5020114;28;20551;-75
2022/07/27 06:54:13;;;;;;;4.57;1.03;;;;;;;;;;5018327;28;20203;-74
2022/07/27 06:56:40;;;;;;;3.50;0.80;;;;;;;;;;5032860;28;20704;-70
2022/07/27 06:59:08;;;;;;;4.30;0.90;;;;;;;;;;5036396;28;20206;-71
2022/07/27 07:01:35;;;;;;;3.80;0.70;;;;;;;;;;5021974;28;20789;-72
2022/07/27 07:04:02;;;;;;;2.97;0.70;;;;;;;;;;5021134;28;20194;-70
2022/07/27 07:06:30;;;;;;;3.47;0.80;;;;;;;;;;5039226;28;20321;-71
2022/07/27 07:08:57;;;;;;;2.43;0.60;;;;;;;;;;5036555;28;20205;-71
2022/07/27 07:11:24;;;;;;;3.70;0.70;;;;;;;;;;5038786;28;20195;-72
2022/07/27 07:13:52;;;;;;;3.10;0.77;;;;;;;;;;5020770;28;20206;-70
2022/07/27 07:16:19;;;;;;;1.63;0.70;;;;;;;;;;5038135;28;20195;-71
2022/07/27 07:18:46;;;;;;;2.90;0.80;;;;;;;;;;5020749;28;20544;-72
2022/07/27 07:21:18;;;;;;;4.17;1.00;;;;;;;;;;5022499;28;20195;-70
2022/07/27 07:23:45;;;;;;;3.67;0.83;;;;;;;;;;5004241;28;20194;-74
2022/07/27 07:26:13;;;;;;;4.07;1.10;;;;;;;;;;5021726;28;20237;-71
2022/07/27 07:28:40;;;;;;;1.90;0.77;;;;;;;;;;5020156;28;20202;-70
2022/07/27 07:31:08;;;;;;;2.83;0.80;;;;;;;;;;5039264;28;20846;-72
2022/07/27 07:33:36;;;;;;;2.03;0.70;;;;;;;;;;5040821;28;20222;-71
2022/07/27 07:36:03;;;;;;;4.57;0.80;;;;;;;;;;5025851;28;20264;-70
2022/07/27 07:38:41;;;;;;;1.63;0.70;;;;;;;;;;5043649;28;20201;-71
2022/07/27 07:41:26;;;;;;;4.07;0.60;;;;;;;;;;5011603;28;20245;-71
2022/07/27 07:43:53;;;;;;;3.23;0.70;;;;;;;;;;5043850;28;20550;-74
2022/07/27 07:46:23;;;;;;;2.27;0.80;;;;;;;;;;5042615;28;20211;-74
2022/07/27 07:48:50;;;;;;;1.77;0.60;;;;;;;;;;5041310;28;20206;-75
2022/07/27 07:51:20;;;;;;;4.20;0.83;;;;;;;;;;5039707;28;20581;-76
2022/07/27 07:53:47;;;;;;;1.43;0.60;;;;;;;;;;5039255;28;20183;-75
2022/07/27 07:56:15;;;;;;;2.13;0.80;;;;;;;;;;5025209;28;21008;-73
2022/07/27 07:58:47;;;;;;;3.43;0.70;;;;;;;;;;5042316;28;20194;-76
2022/07/27 08:01:14;;;;;;;2.13;0.60;;;;;;;;;;5041810;28;20318;-76
2022/07/27 08:03:43;;;;;;;3.40;0.80;;;;;;;;;;5042441;28;20604;-78
2022/07/27 08:06:17;;;;;;;1.97;0.80;;;;;;;;;;5024176;28;20755;-75
2022/07/27 08:09:03;;;;;;;2.80;0.43;;;;;;;;;;5026978;28;20396;-77
2022/07/27 08:11:30;;;;;;;0.90;0.50;;;;;;;;;;4997228;28;20692;-76
2022/07/27 08:13:58;;;;;;;2.47;0.60;;;;;;;;;;5043935;28;20252;-77
2022/07/27 08:16:26;;;;;;;2.10;0.47;;;;;;;;;;5044689;28;20733;-78
2022/07/27 08:18:57;;;;;;;2.80;0.80;;;;;;;;;;5022354;28;20240;-78
2022/07/27 08:21:27;;;;;;;2.77;0.70;;;;;;;;;;5027336;28;20197;-74
2022/07/27 08:24:04;;;;;;;2.67;0.70;;;;;;;;;;5039968;28;20217;-77
2022/07/27 08:26:32;;;;;;;2.00;0.70;;;;;;;;;;5041770;28;20218;-73
2022/07/27 08:28:59;;;;;;;1.87;0.50;;;;;;;;;;5022912;28;20913;-74
2022/07/27 08:31:39;;;;;;;1.80;0.80;;;;;;;;;;5026589;28;20191;-74
2022/07/27 08:34:19;;;;;;;5.20;0.73;;;;;;;;;;5026820;28;21441;-73
2022/07/27 08:36:47;;;;;;;4.93;0.80;;;;;;;;;;5026572;28;20191;-71
2022/07/27 08:39:14;;;;;;;3.30;0.73;;;;;;;;;;5008335;28;20295;-72
2022/07/27 08:42:03;;;;;;;1.03;0.60;;;;;;;;;;5041462;28;20201;-77
2022/07/27 08:44:31;;;;;;;1.23;0.50;;;;;;;;;;4999012;28;20226;-80
2022/07/27 08:47:04;;;;;;;3.30;0.80;;;;;;;;;;5039382;28;20305;-74
2022/07/27 08:49:35;;;;;;;2.37;0.53;;;;;;;;;;5007321;28;20257;-79
2022/07/27 08:52:12;;;;;;;1.70;0.57;;;;;;;;;;5025208;28;20925;-74
2022/07/27 08:54:42;;;;;;;5.33;0.70;;;;;;;;;;4986357;28;20233;-79
2022/07/27 08:57:10;;;;;;;2.13;0.63;;;;;;;;;;5014621;28;20735;-79
2022/07/27 08:59:37;;;;;;;1.80;0.50;;;;;;;;;;5021447;28;20223;-80
2022/07/27 09:02:08;;;;;;;1.10;0.50;;;;;;;;;;4999433;28;21032;-72
2022/07/27 09:04:35;;;;;;;1.17;0.50;;;;;;;;;;5020216;28;20188;-73
2022/07/27 09:07:28;;;;;;;1.27;0.47;;;;;;;;;;5006307;28;20621;-79
2022/07/27 09:09:57;;;;;;;3.13;0.70;;;;;;;;;;5003863;28;20286;-79
2022/07/27 09:12:28;;;;;;;2.30;0.60;;;;;;;;;;5021462;28;20214;-73
2022/07/27 09:15:06;;;;;;;1.70;0.60;;;;;;;;;;5021157;28;20253;-68
2022/07/27 09:17:33;;;;;;;2.03;0.83;;;;;;;;;;5021325;28;20195;-68
2022/07/27 09:20:17;;;;;;;2.13;0.50;;;;;;;;;;5006877;28;20318;-73
2022/07/27 09:22:54;;;;;;;3.90;0.80;;;;;;;;;;5019199;28;20200;-71
2022/07/27 09:25:22;;;;;;;2.13;0.60;;;;;;;;;;5022166;28;20221;-78
2022/07/27 09:28:09;;;;;;;1.30;0.43;;;;;;;;;;5019742;28;20196;-73
2022/07/27 09:30:40;;;;;;;4.87;0.80;;;;;;;;;;5021489;28;20195;-71
2022/07/27 09:33:08;;;;;;;1.50;0.60;;;;;;;;;;5022469;28;20305;-73
2022/07/27 09:35:35;;;;;;;2.30;0.70;;;;;;;;;;5021289;28;20187;-78
2022/07/27 09:38:16;;;;;;;3.07;0.63;;;;;;;;;;5022439;28;20271;-77
2022/07/27 09:40:44;;;;;;;3.00;0.70;;;;;;;;;;4996830;28;20200;-74
2022/07/27 09:43:18;;;;;;;1.87;0.60;;;;;;;;;;5020769;28;20253;-77
2022/07/27 09:46:06;;;;;;;1.43;0.60;;;;;;;;;;5021202;28;20230;-69
2022/07/27 09:48:34;;;;;;;2.53;0.60;;;;;;;;;;5021105;28;20663;-76
2022/07/27 09:51:02;;;;;;;1.67;0.60;;;;;;;;;;5021060;28;20211;-70
2022/07/27 09:53:48;;;;;;;2.43;0.50;;;;;;;;;;5021243;28;20188;-70
2022/07/27 09:56:16;;;;;;;1.63;0.70;;;;;;;;;;5019405;28;20231;-71
2022/07/27 09:58:47;;;;;;;2.30;0.60;;;;;;;;;;5019010;28;20547;-72
2022/07/27 10:01:16;;;;;;;2.23;0.63;;;;;;;;;;5016561;28;20203;-68
2022/07/27 10:03:44;;;;;;;1.97;0.70;;;;;;;;;;5020113;28;20796;-67
2022/07/27 10:06:17;;;;;;;3.40;0.90;;;;;;;;;;5020018;28;20219;-69
2022/07/27 10:09:02;;;;;;;3.17;0.67;;;;;;;;;;5020588;28;20916;-69
2022/07/27 10:11:29;;;;;;;2.07;1.00;;;;;;;;;;5021883;28;20192;-74
2022/07/27 10:14:14;;;;;;;3.47;1.20;;;;;;;;;;5020806;28;20171;-75
2022/07/27 10:16:42;;;;;;;3.60;0.90;;;;;;;;;;5003748;28;20227;-80
2022/07/27 10:19:25;;;;;;;3.10;0.80;;;;;;;;;;5017765;28;20208;-78
2022/07/27 10:21:55;;;;;;;2.30;0.80;;;;;;;;;;5000213;28;20313;-79
2022/07/27 10:24:40;;;;;;;3.27;0.80;;;;;;;;;;5034989;28;20183;-79
2022/07/27 10:27:16;;;;;;;4.33;0.90;;;;;;;;;;5020083;28;20239;-79
2022/07/27 10:30:02;;;;;;;2.90;0.90;;;;;;;;;;5021272;28;20230;-77
2022/07/27 10:32:30;;;;;;;3.20;0.80;;;;;;;;;;5004157;28;20207;-76
2022/07/27 10:34:58;;;;;;;3.27;1.10;;;;;;;;;;5020299;28;20199;-80
2022/07/27 10:37:26;;;;;;;2.40;0.80;;;;;;;;;;5019608;28;20246;-77
2022/07/27 10:43:17;;;;;;;1.47;0.83;;;;;;;;;;5011025;28;20223;-75
2022/07/27 10:45:45;;;;;;;2.97;0.80;;;;;;;;;;4983207;28;20239;-76
2022/07/27 10:48:36;;;;;;;3.17;0.80;;;;;;;;;;5000741;28;20600;-74
2022/07/27 10:51:04;;;;;;;1.43;0.70;;;;;;;;;;5018326;28;20195;-75
2022/07/27 10:53:36;;;;;;;2.57;0.80;;;;;;;;;;5019184;28;20653;-75
2022/07/27 10:56:42;;;;;;;1.90;0.80;;;;;;;;;;5032589;28;20586;-73
2022/07/27 10:59:09;;;;;;;2.50;0.73;;;;;;;;;;5040477;28;20222;-74
2022/07/27 11:01:36;;;;;;;3.33;0.80;;;;;;;;;;5023583;28;20194;-74
2022/07/27 11:04:09;;;;;;;1.73;0.77;;;;;;;;;;5035755;28;20202;-76
2022/07/27 11:06:55;;;;;;;2.40;1.00;;;;;;;;;;5018978;28;20218;-75
2022/07/27 11:09:43;;;;;;;4.50;1.20;;;;;;;;;;5023004;28;20661;-76
2022/07/27 11:12:31;;;;;;;3.00;0.80;;;;;;;;;;5041410;28;20190;-80
2022/07/27 11:14:59;;;;;;;1.47;0.80;;;;;;;;;;5042244;28;20214;-80
2022/07/27 11:17:28;;;;;;;3.10;0.70;;;;;;;;;;5041018;28;20209;-73
2022/07/27 11:20:16;;;;;;;4.10;0.97;;;;;;;;;;5025264;28;20203;-73
2022/07/27 11:22:43;;;;;;;2.40;0.70;;;;;;;;;;5022553;28;20195;-75
2022/07/27 11:25:31;;;;;;;2.10;0.60;;;;;;;;;;5041227;28;20188;-76
2022/07/27 11:27:59;;;;;;;3.27;0.87;;;;;;;;;;5039851;28;20237;-75
2022/07/27 11:30:31;;;;;;;2.87;0.83;;;;;;;;;;5023282;28;20680;-77
2022/07/27 11:32:58;;;;;;;2.63;0.83;;;;;;;;;;5023752;28;20198;-79
2022/07/27 11:35:28;;;;;;;2.40;0.80;;;;;;;;;;5023000;28;20256;-77
2022/07/27 11:38:05;;;;;;;2.63;0.90;;;;;;;;;;5022933;28;20281;-74
2022/07/27 11:40:42;;;;;;;3.07;0.77;;;;;;;;;;5038179;28;20577;-77
2022/07/27 11:43:30;;;;;;;1.67;0.60;;;;;;;;;;5040836;28;20285;-82
2022/07/27 11:46:23;;;;;;;2.33;0.70;;;;;;;;;;5018885;28;20293;-77
2022/07/27 11:48:55;;;;;;;1.53;0.60;;;;;;;;;;4996332;28;20191;-78
2022/07/27 11:51:44;;;;;;;2.03;0.73;;;;;;;;;;5022125;28;20199;-78
2022/07/27 11:54:19;;;;;;;1.90;0.60;;;;;;;;;;5004659;28;20230;-81
2022/07/27 11:56:47;;;;;;;2.53;0.73;;;;;;;;;;4995951;28;20267;-79
2022/07/27 11:59:20;;;;;;;2.37;0.73;;;;;;;;;;5018115;28;20204;-76
2022/07/27 12:02:07;;;;;;;2.43;0.70;;;;;;;;;;5018111;28;20957;-78
2022/07/27 12:04:38;;;;;;;3.80;0.90;;;;;;;;;;5003162;28;20184;-74
2022/07/27 12:07:30;;;;;;;3.07;0.90;;;;;;;;;;4993090;28;21486;-76
2022/07/27 12:09:58;;;;;;;2.57;0.77;;;;;;;;;;4998897;28;20214;-79
2022/07/27 12:12:26;;;;;;;2.73;0.90;;;;;;;;;;5001741;28;20199;-79
2022/07/27 12:14:56;;;;;;;3.47;1.10;;;;;;;;;;4997055;28;20304;-75
2022/07/27 12:17:32;;;;;;;2.70;0.83;;;;;;;;;;4980077;28;20223;-74
2022/07/27 12:20:04;;;;;;;4.10;0.87;;;;;;;;;;5021191;28;20246;-72
2022/07/27 12:22:42;;;;;;;3.77;0.90;;;;;;;;;;5002744;28;20191;-80
2022/07/27 12:25:15;;;;;;;2.97;0.70;;;;;;;;;;5021597;28;20191;-76
2022/07/27 12:28:11;;;;;;;1.90;0.70;;;;;;;;;;5021377;28;20219;-76
2022/07/27 12:30:39;;;;;;;1.50;0.60;;;;;;;;;;5015157;28;20239;-76
2022/07/27 12:33:06;;;;;;;3.73;0.80;;;;;;;;;;5010514;28;20667;-65
2022/07/27 12:35:41;;;;;;;2.50;0.80;;;;;;;;;;5010549;28;20195;-63
2022/07/27 12:38:12;;;;;;;3.67;1.03;;;;;;;;;;5010990;28;20204;-63
2022/07/27 12:40:56;;;;;;;2.60;0.80;;;;;;;;;;5010228;28;20176;-67
2022/07/27 12:43:27;;;;;;;2.13;0.80;;;;;;;;;;5010729;28;20611;-63
2022/07/27 12:45:54;;;;;;;3.87;1.27;;;;;;;;;;4996638;28;20228;-63
2022/07/27 12:48:21;;;;;;;2.53;0.80;;;;;;;;;;5018326;28;20196;-63
2022/07/27 12:51:07;;;;;;;1.60;0.80;;;;;;;;;;5030198;28;20196;-63
2022/07/27 12:53:34;;;;;;;2.33;1.00;;;;;;;;;;5028980;28;20203;-65
2022/07/27 12:56:02;;;;;;;1.73;0.73;;;;;;;;;;5029611;28;20227;-65
2022/07/27 12:58:29;;;;;;;6.80;1.17;;;;;;;;;;5030781;28;20199;-63
2022/07/27 13:00:56;;;;;;;2.67;0.70;;;;;;;;;;5027389;28;20274;-68
2022/07/27 13:03:24;;;;;;;3.80;1.03;;;;;;;;;;5023247;28;20231;-65
2022/07/27 13:05:51;;;;;;;2.40;0.90;;;;;;;;;;4998299;28;20208;-63
2022/07/27 13:08:18;;;;;;;2.00;0.67;;;;;;;;;;5001225;28;20230;-63
2022/07/27 13:10:46;;;;;;;2.07;0.80;;;;;;;;;;5023997;28;20215;-64
2022/07/27 13:13:14;;;;;;;3.53;0.80;;;;;;;;;;5023895;28;20238;-64
2022/07/27 13:15:41;;;;;;;3.43;0.93;;;;;;;;;;4988813;28;21263;-62
2022/07/27 13:18:08;;;;;;;2.40;0.70;;;;;;;;;;5022184;28;20583;-63
2022/07/27 13:20:35;;;;;;;2.93;0.87;;;;;;;;;;5021272;28;20187;-65
2022/07/27 13:23:05;;;;;;;2.53;1.00;;;;;;;;;;5022555;28;20202;-66
2022/07/27 13:25:34;;;;;;;2.93;0.97;;;;;;;;;;5005277;28;20256;-73
2022/07/27 13:28:08;;;;;;;4.83;1.43;;;;;;;;;;5008894;28;20250;-74
2022/07/27 13:30:36;;;;;;;2.23;0.80;;;;;;;;;;4997668;28;20269;-73
2022/07/27 13:33:03;;;;;;;2.43;0.70;;;;;;;;;;5008829;28;20200;-73
2022/07/27 13:35:30;;;;;;;3.10;0.80;;;;;;;;;;5027014;28;20213;-73
2022/07/27 13:37:58;;;;;;;4.33;1.00;;;;;;;;;;5029563;28;20191;-73
2022/07/27 13:40:25;;;;;;;2.57;1.00;;;;;;;;;;5017746;28;20200;-73
2022/07/27 13:42:52;;;;;;;2.70;0.70;;;;;;;;;;5008886;28;20203;-73
2022/07/27 13:45:36;;;;;;;1.50;0.57;;;;;;;;;;4984189;28;20231;-74
2022/07/27 13:48:10;;;;;;;3.10;0.87;;;;;;;;;;5007258;28;20219;-74
2022/07/27 13:50:38;;;;;;;2.50;0.70;;;;;;;;;;5024857;28;20219;-74
2022/07/27 13:53:04;;;;;;;2.17;0.50;;;;;;;;;;5029406;28;20196;-74
2022/07/27 13:55:33;;;;;;;1.73;0.70;;;;;;;;;;5029163;28;20227;-74
2022/07/27 13:58:00;;;;;;;2.53;0.50;;;;;;;;;;5006716;28;20599;-74
2022/07/27 14:00:27;;;;;;;2.23;0.67;;;;;;;;;;5022411;28;20514;-73
2022/07/27 14:03:13;;;;;;;3.10;0.70;;;;;;;;;;5008429;28;20191;-73
2022/07/27 14:05:40;;;;;;;1.97;0.50;;;;;;;;;;5005462;28;20281;-73
2022/07/27 14:08:15;;;;;;;2.20;0.70;;;;;;;;;;5012389;28;20325;-73
2022/07/27 14:10:42;;;;;;;3.20;0.97;;;;;;;;;;5011734;28;20237;-73
2022/07/27 14:13:11;;;;;;;2.43;0.87;;;;;;;;;;5011454;28;20199;-72
2022/07/27 14:15:38;;;;;;;2.00;0.70;;;;;;;;;;5009577;28;20302;-73
2022/07/27 14:18:24;;;;;;;3.30;0.70;;;;;;;;;;4998298;28;20298;-73
2022/07/27 14:20:51;;;;;;;3.90;0.80;;;;;;;;;;5021686;28;20242;-72
2022/07/27 14:23:18;;;;;;;2.97;0.93;;;;;;;;;;5007446;28;20865;-74
2022/07/27 14:25:45;;;;;;;2.93;1.10;;;;;;;;;;5019256;28;20237;-72
2022/07/27 14:28:13;;;;;;;2.03;0.90;;;;;;;;;;4997881;28;20235;-73
2022/07/27 14:30:42;;;;;;;3.20;0.97;;;;;;;;;;4999585;28;20204;-73
2022/07/27 14:33:09;;;;;;;3.63;1.00;;;;;;;;;;5012399;28;20250;-72
2022/07/27 14:35:37;;;;;;;3.67;0.87;;;;;;;;;;5021391;28;20288;-70
2022/07/27 14:38:07;;;;;;;2.63;0.90;;;;;;;;;;5020818;28;20195;-74
2022/07/27 14:40:34;;;;;;;6.47;1.20;;;;;;;;;;5022002;28;21193;-71
2022/07/27 14:43:04;;;;;;;3.17;0.93;;;;;;;;;;5021687;28;20267;-72
2022/07/27 14:45:31;;;;;;;3.50;0.87;;;;;;;;;;5000340;28;20289;-71
2022/07/27 14:48:16;;;;;;;2.83;0.87;;;;;;;;;;5016424;28;20211;-73
2022/07/27 14:51:05;;;;;;;1.57;0.73;;;;;;;;;;5007102;28;20686;-72
2022/07/27 14:53:31;;;;;;;2.33;0.73;;;;;;;;;;4999640;28;20309;-73
2022/07/27 14:55:59;;;;;;;3.53;1.00;;;;;;;;;;5018243;28;20282;-73
2022/07/27 14:58:47;;;;;;;4.50;1.17;;;;;;;;;;5019678;28;20210;-77
2022/07/27 15:01:15;;;;;;;4.83;1.47;;;;;;;;;;5001828;28;20195;-78
2022/07/27 15:03:43;;;;;;;2.03;0.90;;;;;;;;;;5004014;28;20191;-78
2022/07/27 15:06:11;;;;;;;2.57;0.87;;;;;;;;;;5016339;28;20196;-72
2022/07/27 15:08:40;;;;;;;3.50;0.90;;;;;;;;;;5016524;28;20309;-74
2022/07/27 15:11:08;;;;;;;2.47;0.63;;;;;;;;;;5018607;28;20245;-72